sensor_id;sensor_type;location;lat;lon;timestamp;temperature;humidity
32534;DHT22;18973;48.580;8.912;2023-07-08T00:00:45;22.00;61.00
32534;DHT22;18973;48.580;8.912;2023-07-08T00:03:14;22.10;60.80
32534;DHT22;18973;48.580;8.912;2023-07-08T00:05:40;22.00;61.20
32534;DHT22;18973;48.580;8.912;2023-07-08T00:08:18;22.00;60.90
32534;DHT22;18973;48.580;8.912;2023-07-08T00:10:44;22.00;61.10
32534;DHT22;18973;48.580;8.912;2023-07-08T00:13:10;22.00;61.60
32534;DHT22;18973;48.580;8.912;2023-07-08T00:15:38;21.80;62.40
32534;DHT22;18973;48.580;8.912;2023-07-08T00:18:15;21.70;62.70
32534;DHT22;18973;48.580;8.912;2023-07-08T00:20:47;21.70;62.60
32534;DHT22;18973;48.580;8.912;2023-07-08T00:23:13;21.60;62.70
32534;DHT22;18973;48.580;8.912;2023-07-08T00:25:39;21.70;63.40
32534;DHT22;18973;48.580;8.912;2023-07-08T00:28:09;21.50;63.90
32534;DHT22;18973;48.580;8.912;2023-07-08T00:30:36;21.40;64.70
32534;DHT22;18973;48.580;8.912;2023-07-08T00:33:02;21.50;64.90
32534;DHT22;18973;48.580;8.912;2023-07-08T00:38:00;21.60;66.10
32534;DHT22;18973;48.580;8.912;2023-07-08T00:40:38;21.50;67.80
32534;DHT22;18973;48.580;8.912;2023-07-08T00:43:12;21.40;69.40
32534;DHT22;18973;48.580;8.912;2023-07-08T00:45:41;21.20;70.40
32534;DHT22;18973;48.580;8.912;2023-07-08T00:48:20;20.90;68.50
32534;DHT22;18973;48.580;8.912;2023-07-08T00:50:47;20.90;66.70
32534;DHT22;18973;48.580;8.912;2023-07-08T00:53:33;20.90;65.80
32534;DHT22;18973;48.580;8.912;2023-07-08T00:56:15;21.00;66.30
32534;DHT22;18973;48.580;8.912;2023-07-08T00:58:55;20.90;65.90
32534;DHT22;18973;48.580;8.912;2023-07-08T01:01:21;20.70;66.50
32534;DHT22;18973;48.580;8.912;2023-07-08T01:03:57;20.90;69.90
32534;DHT22;18973;48.580;8.912;2023-07-08T01:06:28;20.90;69.60
32534;DHT22;18973;48.580;8.912;2023-07-08T01:09:01;20.60;68.20
32534;DHT22;18973;48.580;8.912;2023-07-08T01:11:29;20.50;67.20
32534;DHT22;18973;48.580;8.912;2023-07-08T01:13:55;20.40;66.20
32534;DHT22;18973;48.580;8.912;2023-07-08T01:16:22;20.50;66.60
32534;DHT22;18973;48.580;8.912;2023-07-08T01:18:48;20.50;66.60
32534;DHT22;18973;48.580;8.912;2023-07-08T01:21:44;20.60;66.30
32534;DHT22;18973;48.580;8.912;2023-07-08T01:24:11;20.70;66.20
32534;DHT22;18973;48.580;8.912;2023-07-08T01:26:40;20.80;65.80
32534;DHT22;18973;48.580;8.912;2023-07-08T01:29:07;20.80;67.10
32534;DHT22;18973;48.580;8.912;2023-07-08T01:31:34;20.50;71.00
32534;DHT22;18973;48.580;8.912;2023-07-08T01:34:00;20.30;70.40
32534;DHT22;18973;48.580;8.912;2023-07-08T01:36:29;20.10;70.00
32534;DHT22;18973;48.580;8.912;2023-07-08T01:38:56;20.20;70.10
32534;DHT22;18973;48.580;8.912;2023-07-08T01:41:22;20.10;69.10
32534;DHT22;18973;48.580;8.912;2023-07-08T01:43:47;20.10;69.00
32534;DHT22;18973;48.580;8.912;2023-07-08T01:46:24;20.20;70.30
32534;DHT22;18973;48.580;8.912;2023-07-08T01:48:54;20.30;71.10
32534;DHT22;18973;48.580;8.912;2023-07-08T01:51:22;20.30;71.80
32534;DHT22;18973;48.580;8.912;2023-07-08T01:53:48;20.10;73.30
32534;DHT22;18973;48.580;8.912;2023-07-08T01:56:15;20.10;74.10
32534;DHT22;18973;48.580;8.912;2023-07-08T01:58:41;20.20;74.80
32534;DHT22;18973;48.580;8.912;2023-07-08T02:01:07;20.10;75.70
32534;DHT22;18973;48.580;8.912;2023-07-08T02:03:34;20.10;76.10
32534;DHT22;18973;48.580;8.912;2023-07-08T02:06:00;20.10;76.60
32534;DHT22;18973;48.580;8.912;2023-07-08T02:08:25;19.90;77.40
32534;DHT22;18973;48.580;8.912;2023-07-08T02:10:57;19.60;78.60
32534;DHT22;18973;48.580;8.912;2023-07-08T02:13:24;19.40;79.60
32534;DHT22;18973;48.580;8.912;2023-07-08T02:15:50;19.50;79.40
32534;DHT22;18973;48.580;8.912;2023-07-08T02:18:16;19.40;79.60
32534;DHT22;18973;48.580;8.912;2023-07-08T02:20:44;19.60;79.30
32534;DHT22;18973;48.580;8.912;2023-07-08T02:23:10;19.60;80.10
32534;DHT22;18973;48.580;8.912;2023-07-08T02:25:36;19.30;81.80
32534;DHT22;18973;48.580;8.912;2023-07-08T02:28:02;19.10;83.10
32534;DHT22;18973;48.580;8.912;2023-07-08T02:30:28;19.10;84.00
32534;DHT22;18973;48.580;8.912;2023-07-08T02:32:54;19.20;83.60
32534;DHT22;18973;48.580;8.912;2023-07-08T02:35:27;19.20;84.40
32534;DHT22;18973;48.580;8.912;2023-07-08T02:37:54;18.90;85.70
32534;DHT22;18973;48.580;8.912;2023-07-08T02:40:21;18.70;87.40
32534;DHT22;18973;48.580;8.912;2023-07-08T02:42:47;18.90;87.50
32534;DHT22;18973;48.580;8.912;2023-07-08T02:45:13;18.70;86.90
32534;DHT22;18973;48.580;8.912;2023-07-08T02:47:39;18.30;89.70
32534;DHT22;18973;48.580;8.912;2023-07-08T02:50:07;18.50;89.80
32534;DHT22;18973;48.580;8.912;2023-07-08T02:52:32;18.60;88.00
32534;DHT22;18973;48.580;8.912;2023-07-08T02:54:58;18.40;86.60
32534;DHT22;18973;48.580;8.912;2023-07-08T02:57:23;18.50;82.70
32534;DHT22;18973;48.580;8.912;2023-07-08T02:59:49;18.70;81.10
32534;DHT22;18973;48.580;8.912;2023-07-08T03:02:15;18.80;81.30
32534;DHT22;18973;48.580;8.912;2023-07-08T03:04:40;18.80;82.00
32534;DHT22;18973;48.580;8.912;2023-07-08T03:07:07;18.80;80.20
32534;DHT22;18973;48.580;8.912;2023-07-08T03:09:40;18.90;78.80
32534;DHT22;18973;48.580;8.912;2023-07-08T03:12:07;19.10;79.50
32534;DHT22;18973;48.580;8.912;2023-07-08T03:14:33;19.20;79.50
32534;DHT22;18973;48.580;8.912;2023-07-08T03:16:59;19.10;80.20
32534;DHT22;18973;48.580;8.912;2023-07-08T03:19:25;19.20;81.30
32534;DHT22;18973;48.580;8.912;2023-07-08T03:21:51;19.20;81.60
32534;DHT22;18973;48.580;8.912;2023-07-08T03:24:17;19.10;82.20
32534;DHT22;18973;48.580;8.912;2023-07-08T03:26:44;19.10;82.40
32534;DHT22;18973;48.580;8.912;2023-07-08T03:29:16;19.20;83.20
32534;DHT22;18973;48.580;8.912;2023-07-08T03:31:42;19.20;84.40
32534;DHT22;18973;48.580;8.912;2023-07-08T03:34:13;19.10;85.50
32534;DHT22;18973;48.580;8.912;2023-07-08T03:36:43;19.20;86.30
32534;DHT22;18973;48.580;8.912;2023-07-08T03:39:14;19.20;87.10
32534;DHT22;18973;48.580;8.912;2023-07-08T03:41:41;19.10;87.60
32534;DHT22;18973;48.580;8.912;2023-07-08T03:44:06;19.20;87.60
32534;DHT22;18973;48.580;8.912;2023-07-08T03:46:32;19.10;88.40
32534;DHT22;18973;48.580;8.912;2023-07-08T03:48:58;18.90;89.80
32534;DHT22;18973;48.580;8.912;2023-07-08T03:51:29;18.60;90.60
32534;DHT22;18973;48.580;8.912;2023-07-08T03:53:55;18.60;90.80
32534;DHT22;18973;48.580;8.912;2023-07-08T03:56:21;18.70;91.20
32534;DHT22;18973;48.580;8.912;2023-07-08T03:58:47;18.70;91.60
32534;DHT22;18973;48.580;8.912;2023-07-08T04:01:20;18.70;91.50
32534;DHT22;18973;48.580;8.912;2023-07-08T04:03:46;18.70;91.50
32534;DHT22;18973;48.580;8.912;2023-07-08T04:06:13;18.50;91.80
32534;DHT22;18973;48.580;8.912;2023-07-08T04:08:39;18.30;92.30
32534;DHT22;18973;48.580;8.912;2023-07-08T04:11:05;18.30;92.50
32534;DHT22;18973;48.580;8.912;2023-07-08T04:13:32;18.50;92.50
32534;DHT22;18973;48.580;8.912;2023-07-08T04:16:02;18.40;92.70
32534;DHT22;18973;48.580;8.912;2023-07-08T04:18:29;18.40;92.40
32534;DHT22;18973;48.580;8.912;2023-07-08T04:20:55;18.30;92.60
32534;DHT22;18973;48.580;8.912;2023-07-08T04:23:22;18.50;92.90
32534;DHT22;18973;48.580;8.912;2023-07-08T04:25:49;18.70;92.90
32534;DHT22;18973;48.580;8.912;2023-07-08T04:28:15;18.70;92.80
32534;DHT22;18973;48.580;8.912;2023-07-08T04:30:42;18.80;93.10
32534;DHT22;18973;48.580;8.912;2023-07-08T04:33:09;18.90;93.20
32534;DHT22;18973;48.580;8.912;2023-07-08T04:35:36;18.90;93.10
32534;DHT22;18973;48.580;8.912;2023-07-08T04:38:26;18.80;93.60
32534;DHT22;18973;48.580;8.912;2023-07-08T04:40:52;18.70;94.10
32534;DHT22;18973;48.580;8.912;2023-07-08T04:43:19;18.70;94.40
32534;DHT22;18973;48.580;8.912;2023-07-08T04:45:48;18.80;95.00
32534;DHT22;18973;48.580;8.912;2023-07-08T04:48:19;18.80;95.80
32534;DHT22;18973;48.580;8.912;2023-07-08T04:50:48;18.60;96.90
32534;DHT22;18973;48.580;8.912;2023-07-08T04:53:15;18.60;97.90
32534;DHT22;18973;48.580;8.912;2023-07-08T04:55:47;18.40;98.60
32534;DHT22;18973;48.580;8.912;2023-07-08T04:58:13;18.10;99.70
32534;DHT22;18973;48.580;8.912;2023-07-08T05:00:39;17.90;99.70
32534;DHT22;18973;48.580;8.912;2023-07-08T05:03:05;18.10;99.90
32534;DHT22;18973;48.580;8.912;2023-07-08T05:05:30;18.30;99.90
32534;DHT22;18973;48.580;8.912;2023-07-08T05:07:56;18.40;99.90
32534;DHT22;18973;48.580;8.912;2023-07-08T05:10:22;18.40;99.90
32534;DHT22;18973;48.580;8.912;2023-07-08T05:12:48;18.50;99.90
32534;DHT22;18973;48.580;8.912;2023-07-08T05:15:14;18.70;99.90
32534;DHT22;18973;48.580;8.912;2023-07-08T05:17:40;18.70;99.90
32534;DHT22;18973;48.580;8.912;2023-07-08T05:20:08;18.70;99.90
32534;DHT22;18973;48.580;8.912;2023-07-08T05:22:35;18.70;99.90
32534;DHT22;18973;48.580;8.912;2023-07-08T05:25:01;18.80;99.90
32534;DHT22;18973;48.580;8.912;2023-07-08T05:27:27;18.90;99.90
32534;DHT22;18973;48.580;8.912;2023-07-08T05:29:53;19.10;99.90
32534;DHT22;18973;48.580;8.912;2023-07-08T05:32:19;19.20;99.60
32534;DHT22;18973;48.580;8.912;2023-07-08T05:34:45;19.20;99.30
32534;DHT22;18973;48.580;8.912;2023-07-08T05:37:12;19.30;98.20
32534;DHT22;18973;48.580;8.912;2023-07-08T05:39:37;19.40;98.10
32534;DHT22;18973;48.580;8.912;2023-07-08T05:42:03;19.40;98.20
32534;DHT22;18973;48.580;8.912;2023-07-08T05:44:29;19.30;99.10
32534;DHT22;18973;48.580;8.912;2023-07-08T05:46:55;19.40;98.60
32534;DHT22;18973;48.580;8.912;2023-07-08T05:49:21;19.40;99.10
32534;DHT22;18973;48.580;8.912;2023-07-08T05:51:46;19.50;98.60
32534;DHT22;18973;48.580;8.912;2023-07-08T05:54:13;19.70;98.70
32534;DHT22;18973;48.580;8.912;2023-07-08T05:56:39;19.70;99.30
32534;DHT22;18973;48.580;8.912;2023-07-08T05:59:05;19.90;99.30
32534;DHT22;18973;48.580;8.912;2023-07-08T06:01:31;20.00;99.60
32534;DHT22;18973;48.580;8.912;2023-07-08T06:03:56;20.00;99.50
32534;DHT22;18973;48.580;8.912;2023-07-08T06:06:25;20.10;98.70
32534;DHT22;18973;48.580;8.912;2023-07-08T06:08:51;20.00;98.20
32534;DHT22;18973;48.580;8.912;2023-07-08T06:11:17;20.10;98.00
32534;DHT22;18973;48.580;8.912;2023-07-08T06:13:42;20.10;96.40
32534;DHT22;18973;48.580;8.912;2023-07-08T06:16:08;20.20;96.40
32534;DHT22;18973;48.580;8.912;2023-07-08T06:18:34;20.20;96.80
32534;DHT22;18973;48.580;8.912;2023-07-08T06:21:00;20.30;96.60
32534;DHT22;18973;48.580;8.912;2023-07-08T06:23:27;20.40;95.80
32534;DHT22;18973;48.580;8.912;2023-07-08T06:25:53;20.40;96.00
32534;DHT22;18973;48.580;8.912;2023-07-08T06:28:19;20.40;96.50
32534;DHT22;18973;48.580;8.912;2023-07-08T06:30:46;20.40;96.20
32534;DHT22;18973;48.580;8.912;2023-07-08T06:33:12;20.40;96.00
32534;DHT22;18973;48.580;8.912;2023-07-08T06:35:38;20.60;95.80
32534;DHT22;18973;48.580;8.912;2023-07-08T06:38:05;20.70;95.80
32534;DHT22;18973;48.580;8.912;2023-07-08T06:40:32;20.70;95.70
32534;DHT22;18973;48.580;8.912;2023-07-08T06:42:57;20.60;95.80
32534;DHT22;18973;48.580;8.912;2023-07-08T06:45:23;20.70;96.00
32534;DHT22;18973;48.580;8.912;2023-07-08T06:47:49;20.70;95.90
32534;DHT22;18973;48.580;8.912;2023-07-08T06:50:15;20.60;95.90
32534;DHT22;18973;48.580;8.912;2023-07-08T06:52:40;20.60;96.00
32534;DHT22;18973;48.580;8.912;2023-07-08T06:55:08;20.80;96.00
32534;DHT22;18973;48.580;8.912;2023-07-08T06:57:34;20.70;96.20
32534;DHT22;18973;48.580;8.912;2023-07-08T07:00:00;20.90;96.20
32534;DHT22;18973;48.580;8.912;2023-07-08T07:02:27;20.90;96.30
32534;DHT22;18973;48.580;8.912;2023-07-08T07:04:53;20.90;96.00
32534;DHT22;18973;48.580;8.912;2023-07-08T07:07:19;21.00;96.20
32534;DHT22;18973;48.580;8.912;2023-07-08T07:09:44;21.00;96.00
32534;DHT22;18973;48.580;8.912;2023-07-08T07:12:10;21.00;96.10
32534;DHT22;18973;48.580;8.912;2023-07-08T07:14:36;21.10;96.20
32534;DHT22;18973;48.580;8.912;2023-07-08T07:17:01;21.10;96.70
32534;DHT22;18973;48.580;8.912;2023-07-08T07:19:27;21.20;96.30
32534;DHT22;18973;48.580;8.912;2023-07-08T07:21:53;21.30;96.40
32534;DHT22;18973;48.580;8.912;2023-07-08T07:24:18;21.40;96.30
32534;DHT22;18973;48.580;8.912;2023-07-08T07:26:44;21.40;96.30
32534;DHT22;18973;48.580;8.912;2023-07-08T07:29:10;21.50;95.60
32534;DHT22;18973;48.580;8.912;2023-07-08T07:31:36;21.60;95.90
32534;DHT22;18973;48.580;8.912;2023-07-08T07:34:05;21.60;95.90
32534;DHT22;18973;48.580;8.912;2023-07-08T07:36:31;21.60;95.90
32534;DHT22;18973;48.580;8.912;2023-07-08T07:38:56;21.80;95.40
32534;DHT22;18973;48.580;8.912;2023-07-08T07:41:22;21.90;95.40
32534;DHT22;18973;48.580;8.912;2023-07-08T07:43:49;22.00;95.10
32534;DHT22;18973;48.580;8.912;2023-07-08T07:46:14;22.00;95.00
32534;DHT22;18973;48.580;8.912;2023-07-08T07:48:40;22.00;95.10
32534;DHT22;18973;48.580;8.912;2023-07-08T07:51:08;22.00;95.70
32534;DHT22;18973;48.580;8.912;2023-07-08T07:53:36;22.10;95.30
32534;DHT22;18973;48.580;8.912;2023-07-08T07:56:03;22.10;95.40
32534;DHT22;18973;48.580;8.912;2023-07-08T07:58:29;22.10;95.10
32534;DHT22;18973;48.580;8.912;2023-07-08T08:00:55;22.20;95.10
32534;DHT22;18973;48.580;8.912;2023-07-08T08:03:21;22.20;95.40
32534;DHT22;18973;48.580;8.912;2023-07-08T08:05:47;22.20;95.40
32534;DHT22;18973;48.580;8.912;2023-07-08T08:08:13;22.30;95.70
32534;DHT22;18973;48.580;8.912;2023-07-08T08:10:39;22.40;96.00
32534;DHT22;18973;48.580;8.912;2023-07-08T08:13:05;22.40;95.50
32534;DHT22;18973;48.580;8.912;2023-07-08T08:15:30;22.60;95.40
32534;DHT22;18973;48.580;8.912;2023-07-08T08:17:56;22.80;95.20
32534;DHT22;18973;48.580;8.912;2023-07-08T08:20:24;22.90;94.90
32534;DHT22;18973;48.580;8.912;2023-07-08T08:22:50;23.20;94.60
32534;DHT22;18973;48.580;8.912;2023-07-08T08:25:18;23.60;94.70
32534;DHT22;18973;48.580;8.912;2023-07-08T08:27:43;24.10;93.40
32534;DHT22;18973;48.580;8.912;2023-07-08T08:30:10;24.50;92.60
32534;DHT22;18973;48.580;8.912;2023-07-08T08:32:36;24.90;90.90
32534;DHT22;18973;48.580;8.912;2023-07-08T08:35:02;25.30;90.80
32534;DHT22;18973;48.580;8.912;2023-07-08T08:37:27;25.50;90.00
32534;DHT22;18973;48.580;8.912;2023-07-08T08:39:53;25.60;89.00
32534;DHT22;18973;48.580;8.912;2023-07-08T08:42:43;25.70;88.80
32534;DHT22;18973;48.580;8.912;2023-07-08T08:45:13;25.80;88.40
32534;DHT22;18973;48.580;8.912;2023-07-08T08:48:06;25.90;88.10
32534;DHT22;18973;48.580;8.912;2023-07-08T08:50:43;26.00;86.20
32534;DHT22;18973;48.580;8.912;2023-07-08T08:53:11;26.10;85.70
32534;DHT22;18973;48.580;8.912;2023-07-08T08:55:37;26.00;85.90
32534;DHT22;18973;48.580;8.912;2023-07-08T09:00:59;26.90;85.70
32534;DHT22;18973;48.580;8.912;2023-07-08T09:05:59;27.30;82.60
32534;DHT22;18973;48.580;8.912;2023-07-08T09:08:31;27.40;82.40
32534;DHT22;18973;48.580;8.912;2023-07-08T09:13:36;27.60;79.40
32534;DHT22;18973;48.580;8.912;2023-07-08T09:16:42;27.90;81.60
32534;DHT22;18973;48.580;8.912;2023-07-08T09:19:24;28.10;78.90
32534;DHT22;18973;48.580;8.912;2023-07-08T09:24:53;28.40;74.80
32534;DHT22;18973;48.580;8.912;2023-07-08T09:27:21;28.30;74.80
32534;DHT22;18973;48.580;8.912;2023-07-08T09:29:47;28.20;74.30
32534;DHT22;18973;48.580;8.912;2023-07-08T09:32:23;28.40;74.20
32534;DHT22;18973;48.580;8.912;2023-07-08T09:34:52;28.60;75.10
32534;DHT22;18973;48.580;8.912;2023-07-08T09:37:33;28.80;74.30
32534;DHT22;18973;48.580;8.912;2023-07-08T09:40:03;29.10;74.10
32534;DHT22;18973;48.580;8.912;2023-07-08T09:42:33;28.80;73.80
32534;DHT22;18973;48.580;8.912;2023-07-08T09:45:15;28.60;74.60
32534;DHT22;18973;48.580;8.912;2023-07-08T09:47:42;28.60;76.00
32534;DHT22;18973;48.580;8.912;2023-07-08T09:50:25;28.60;75.00
32534;DHT22;18973;48.580;8.912;2023-07-08T09:52:53;28.20;75.20
32534;DHT22;18973;48.580;8.912;2023-07-08T09:55:19;28.10;74.60
32534;DHT22;18973;48.580;8.912;2023-07-08T09:57:48;28.00;75.70
32534;DHT22;18973;48.580;8.912;2023-07-08T10:00:17;28.10;75.70
32534;DHT22;18973;48.580;8.912;2023-07-08T10:02:51;28.20;75.30
32534;DHT22;18973;48.580;8.912;2023-07-08T10:05:39;28.40;75.10
32534;DHT22;18973;48.580;8.912;2023-07-08T10:08:16;28.50;75.30
32534;DHT22;18973;48.580;8.912;2023-07-08T10:10:43;28.50;75.70
32534;DHT22;18973;48.580;8.912;2023-07-08T10:13:34;28.70;75.70
32534;DHT22;18973;48.580;8.912;2023-07-08T10:16:12;29.10;74.20
32534;DHT22;18973;48.580;8.912;2023-07-08T10:18:38;29.30;73.80
32534;DHT22;18973;48.580;8.912;2023-07-08T10:27:36;29.60;70.80
32534;DHT22;18973;48.580;8.912;2023-07-08T10:29:52;29.60;70.20
32534;DHT22;18973;48.580;8.912;2023-07-08T10:35:14;30.00;69.10
32534;DHT22;18973;48.580;8.912;2023-07-08T10:40:56;30.20;68.80
32534;DHT22;18973;48.580;8.912;2023-07-08T10:43:34;30.30;67.60
32534;DHT22;18973;48.580;8.912;2023-07-08T10:48:56;30.50;68.80
32534;DHT22;18973;48.580;8.912;2023-07-08T10:56:54;30.30;67.20
32534;DHT22;18973;48.580;8.912;2023-07-08T11:02:17;31.00;62.10
32534;DHT22;18973;48.580;8.912;2023-07-08T11:05:10;31.30;61.70
32534;DHT22;18973;48.580;8.912;2023-07-08T11:07:53;30.90;61.70
32534;DHT22;18973;48.580;8.912;2023-07-08T11:10:24;31.00;62.10
32534;DHT22;18973;48.580;8.912;2023-07-08T11:13:02;31.20;61.90
32534;DHT22;18973;48.580;8.912;2023-07-08T11:15:41;31.40;61.50
32534;DHT22;18973;48.580;8.912;2023-07-08T11:18:58;31.80;58.90
32534;DHT22;18973;48.580;8.912;2023-07-08T11:21:16;31.60;58.10
32534;DHT22;18973;48.580;8.912;2023-07-08T11:23:43;31.90;57.20
32534;DHT22;18973;48.580;8.912;2023-07-08T11:26:19;32.30;58.20
32534;DHT22;18973;48.580;8.912;2023-07-08T11:28:46;32.50;56.00
32534;DHT22;18973;48.580;8.912;2023-07-08T11:31:14;31.90;57.40
32534;DHT22;18973;48.580;8.912;2023-07-08T11:33:41;32.10;56.60
32534;DHT22;18973;48.580;8.912;2023-07-08T11:36:08;31.70;55.80
32534;DHT22;18973;48.580;8.912;2023-07-08T11:38:35;31.60;56.30
32534;DHT22;18973;48.580;8.912;2023-07-08T11:43:37;32.30;57.60
32534;DHT22;18973;48.580;8.912;2023-07-08T11:46:06;32.90;57.10
32534;DHT22;18973;48.580;8.912;2023-07-08T11:48:40;32.90;54.70
32534;DHT22;18973;48.580;8.912;2023-07-08T11:51:09;33.00;54.30
32534;DHT22;18973;48.580;8.912;2023-07-08T11:53:50;33.00;53.80
32534;DHT22;18973;48.580;8.912;2023-07-08T12:03:53;34.00;51.90
32534;DHT22;18973;48.580;8.912;2023-07-08T12:08:58;34.30;51.80
32534;DHT22;18973;48.580;8.912;2023-07-08T12:11:32;34.30;51.50
32534;DHT22;18973;48.580;8.912;2023-07-08T12:14:01;34.00;50.10
32534;DHT22;18973;48.580;8.912;2023-07-08T12:16:29;33.50;49.90
32534;DHT22;18973;48.580;8.912;2023-07-08T12:18:56;33.00;51.40
32534;DHT22;18973;48.580;8.912;2023-07-08T12:21:24;33.20;52.00
32534;DHT22;18973;48.580;8.912;2023-07-08T12:23:51;33.30;50.20
32534;DHT22;18973;48.580;8.912;2023-07-08T12:26:17;33.30;50.40
32534;DHT22;18973;48.580;8.912;2023-07-08T12:28:44;33.20;50.10
32534;DHT22;18973;48.580;8.912;2023-07-08T12:31:19;33.20;50.80
32534;DHT22;18973;48.580;8.912;2023-07-08T12:33:45;32.70;50.50
32534;DHT22;18973;48.580;8.912;2023-07-08T12:36:20;32.80;50.00
32534;DHT22;18973;48.580;8.912;2023-07-08T12:38:47;32.50;51.30
32534;DHT22;18973;48.580;8.912;2023-07-08T12:43:46;32.70;50.40
32534;DHT22;18973;48.580;8.912;2023-07-08T12:46:13;32.90;51.10
32534;DHT22;18973;48.580;8.912;2023-07-08T12:48:40;33.00;49.30
32534;DHT22;18973;48.580;8.912;2023-07-08T12:51:13;32.90;49.40
32534;DHT22;18973;48.580;8.912;2023-07-08T12:53:40;33.20;51.00
32534;DHT22;18973;48.580;8.912;2023-07-08T12:56:06;33.20;48.90
32534;DHT22;18973;48.580;8.912;2023-07-08T12:58:38;33.00;50.20
32534;DHT22;18973;48.580;8.912;2023-07-08T13:01:06;33.20;48.70
32534;DHT22;18973;48.580;8.912;2023-07-08T13:03:36;33.60;49.90
32534;DHT22;18973;48.580;8.912;2023-07-08T13:06:03;33.90;49.00
32534;DHT22;18973;48.580;8.912;2023-07-08T13:08:34;34.00;48.20
32534;DHT22;18973;48.580;8.912;2023-07-08T13:11:02;34.00;48.70
32534;DHT22;18973;48.580;8.912;2023-07-08T13:13:34;34.10;48.30
32534;DHT22;18973;48.580;8.912;2023-07-08T13:16:01;34.00;48.80
32534;DHT22;18973;48.580;8.912;2023-07-08T13:18:36;34.00;48.70
32534;DHT22;18973;48.580;8.912;2023-07-08T13:21:03;33.60;48.80
32534;DHT22;18973;48.580;8.912;2023-07-08T13:23:30;33.70;49.10
32534;DHT22;18973;48.580;8.912;2023-07-08T13:25:57;33.80;50.80
32534;DHT22;18973;48.580;8.912;2023-07-08T13:28:28;34.00;50.00
32534;DHT22;18973;48.580;8.912;2023-07-08T13:31:00;34.30;50.60
32534;DHT22;18973;48.580;8.912;2023-07-08T13:33:32;34.50;48.70
32534;DHT22;18973;48.580;8.912;2023-07-08T13:36:01;34.10;49.00
32534;DHT22;18973;48.580;8.912;2023-07-08T13:38:35;34.00;49.20
32534;DHT22;18973;48.580;8.912;2023-07-08T13:41:03;34.00;49.80
32534;DHT22;18973;48.580;8.912;2023-07-08T13:43:32;33.70;49.20
32534;DHT22;18973;48.580;8.912;2023-07-08T13:45:58;33.50;50.30
32534;DHT22;18973;48.580;8.912;2023-07-08T13:51:07;33.40;49.40
32534;DHT22;18973;48.580;8.912;2023-07-08T13:56:21;33.30;49.80
32534;DHT22;18973;48.580;8.912;2023-07-08T13:58:50;33.20;49.70
32534;DHT22;18973;48.580;8.912;2023-07-08T14:01:22;33.20;50.30
32534;DHT22;18973;48.580;8.912;2023-07-08T14:03:49;33.30;50.00
32534;DHT22;18973;48.580;8.912;2023-07-08T14:06:27;33.10;50.20
32534;DHT22;18973;48.580;8.912;2023-07-08T14:08:56;32.60;50.20
32534;DHT22;18973;48.580;8.912;2023-07-08T14:11:22;32.90;51.30
32534;DHT22;18973;48.580;8.912;2023-07-08T14:13:48;33.10;50.60
32534;DHT22;18973;48.580;8.912;2023-07-08T14:16:23;32.90;50.20
32534;DHT22;18973;48.580;8.912;2023-07-08T14:18:50;32.90;50.50
32534;DHT22;18973;48.580;8.912;2023-07-08T14:21:17;33.20;50.60
32534;DHT22;18973;48.580;8.912;2023-07-08T14:23:43;33.20;50.40
32534;DHT22;18973;48.580;8.912;2023-07-08T14:26:12;33.00;50.50
32534;DHT22;18973;48.580;8.912;2023-07-08T14:28:38;32.80;50.60
32534;DHT22;18973;48.580;8.912;2023-07-08T14:31:10;32.70;51.10
32534;DHT22;18973;48.580;8.912;2023-07-08T14:33:36;32.60;51.10
32534;DHT22;18973;48.580;8.912;2023-07-08T14:36:02;32.60;50.20
32534;DHT22;18973;48.580;8.912;2023-07-08T14:38:28;32.50;51.00
32534;DHT22;18973;48.580;8.912;2023-07-08T14:40:54;32.60;51.60
32534;DHT22;18973;48.580;8.912;2023-07-08T14:43:30;32.70;50.90
32534;DHT22;18973;48.580;8.912;2023-07-08T14:45:59;32.60;50.80
32534;DHT22;18973;48.580;8.912;2023-07-08T14:48:28;32.50;50.50
32534;DHT22;18973;48.580;8.912;2023-07-08T14:50:54;32.30;50.30
32534;DHT22;18973;48.580;8.912;2023-07-08T14:53:20;32.30;51.90
32534;DHT22;18973;48.580;8.912;2023-07-08T14:55:48;32.60;51.50
32534;DHT22;18973;48.580;8.912;2023-07-08T14:58:22;32.80;51.00
32534;DHT22;18973;48.580;8.912;2023-07-08T15:00:50;32.90;50.00
32534;DHT22;18973;48.580;8.912;2023-07-08T15:03:15;32.90;49.50
32534;DHT22;18973;48.580;8.912;2023-07-08T15:05:41;32.90;50.20
32534;DHT22;18973;48.580;8.912;2023-07-08T15:08:07;32.80;49.90
32534;DHT22;18973;48.580;8.912;2023-07-08T15:10:35;32.90;50.20
32534;DHT22;18973;48.580;8.912;2023-07-08T15:13:02;32.90;50.10
32534;DHT22;18973;48.580;8.912;2023-07-08T15:15:30;32.90;50.20
32534;DHT22;18973;48.580;8.912;2023-07-08T15:17:58;32.90;50.00
32534;DHT22;18973;48.580;8.912;2023-07-08T15:20:24;32.90;49.50
32534;DHT22;18973;48.580;8.912;2023-07-08T15:22:51;32.70;49.90
32534;DHT22;18973;48.580;8.912;2023-07-08T15:25:17;32.50;50.50
32534;DHT22;18973;48.580;8.912;2023-07-08T15:27:52;32.30;50.00
32534;DHT22;18973;48.580;8.912;2023-07-08T15:30:25;32.40;50.40
32534;DHT22;18973;48.580;8.912;2023-07-08T15:32:52;32.40;50.40
32534;DHT22;18973;48.580;8.912;2023-07-08T15:35:23;32.50;50.20
32534;DHT22;18973;48.580;8.912;2023-07-08T15:37:56;32.40;50.10
32534;DHT22;18973;48.580;8.912;2023-07-08T15:40:23;32.40;50.10
32534;DHT22;18973;48.580;8.912;2023-07-08T15:42:53;32.30;50.20
32534;DHT22;18973;48.580;8.912;2023-07-08T15:45:25;32.20;50.90
32534;DHT22;18973;48.580;8.912;2023-07-08T15:47:51;32.30;50.50
32534;DHT22;18973;48.580;8.912;2023-07-08T15:50:22;32.20;50.10
32534;DHT22;18973;48.580;8.912;2023-07-08T15:52:50;32.10;50.60
32534;DHT22;18973;48.580;8.912;2023-07-08T15:55:23;32.00;50.80
32534;DHT22;18973;48.580;8.912;2023-07-08T15:57:57;31.90;51.60
32534;DHT22;18973;48.580;8.912;2023-07-08T16:00:27;31.80;52.20
32534;DHT22;18973;48.580;8.912;2023-07-08T16:02:58;31.80;50.80
32534;DHT22;18973;48.580;8.912;2023-07-08T16:05:25;31.90;51.90
32534;DHT22;18973;48.580;8.912;2023-07-08T16:07:53;31.90;51.20
32534;DHT22;18973;48.580;8.912;2023-07-08T16:10:19;32.00;51.50
32534;DHT22;18973;48.580;8.912;2023-07-08T16:12:47;32.10;52.60
32534;DHT22;18973;48.580;8.912;2023-07-08T16:15:19;32.20;50.70
32534;DHT22;18973;48.580;8.912;2023-07-08T16:17:45;32.10;50.30
32534;DHT22;18973;48.580;8.912;2023-07-08T16:20:17;32.10;51.30
32534;DHT22;18973;48.580;8.912;2023-07-08T16:22:44;32.10;51.80
32534;DHT22;18973;48.580;8.912;2023-07-08T16:25:14;32.10;50.60
32534;DHT22;18973;48.580;8.912;2023-07-08T16:27:41;32.10;51.00
32534;DHT22;18973;48.580;8.912;2023-07-08T16:30:13;32.30;50.70
32534;DHT22;18973;48.580;8.912;2023-07-08T16:32:39;32.30;50.70
32534;DHT22;18973;48.580;8.912;2023-07-08T16:35:05;32.30;50.60
32534;DHT22;18973;48.580;8.912;2023-07-08T16:37:31;32.30;51.20